ADDS METAR Data INFO
IDs: Format: Raw Decoded Include TAF

Data at: 0304 UTC 17 Jan 2018

KCHO 170253Z 00000KT 10SM SCT050 BKN100 03/M08 A3031 RMK AO2 SLP267 T00281083 56006
KCHO 170153Z 00000KT 10SM OVC050 03/M07 A3031 RMK AO2 SLP270 T00281072
KCHO 170053Z 00000KT 10SM OVC080 03/M08 A3032 RMK AO2 SLP272 T00281083
KCHO 162353Z 00000KT 10SM BKN120 04/M09 A3033 RMK AO2 SLP273 T00391089 10061 20039 53003
KCHO 162253Z 00000KT 10SM CLR 05/M09 A3032 RMK AO2 SLP272 T00501089
KCHO 162153Z 14004KT 10SM CLR 05/M09 A3032 RMK AO2 SLP271 T00501089
KCHO 162053Z 00000KT 10SM CLR 06/M10 A3032 RMK AO2 SLP270 T00561100 56015
KCHO 161953Z 14005KT 10SM CLR 06/M10 A3032 RMK AO2 SLP270 T00611100
KCHO 161853Z 16005KT 10SM CLR 06/M11 A3033 RMK AO2 SLP274 T00561106
KCHO 161753Z VRB03KT 10SM CLR 04/M10 A3036 RMK AO2 SLP285 T00391100 10044 21056 58026
KCHO 161653Z 18005KT 10SM CLR 03/M10 A3041 RMK AO2 SLP302 T00281100
KCHO 161553Z VRB03KT 10SM CLR 02/M10 A3044 RMK AO2 SLP311 T00171100
KCHO 161453Z 00000KT 10SM CLR 00/M08 A3044 RMK AO2 SLP313 T00001078 51010
KCHO 161353Z 00000KT 10SM CLR M03/M07 A3043 RMK AO2 SLP311 T10281072
KCHO 161253Z 00000KT 10SM CLR M05/M08 A3043 RMK AO2 SLP310 T10501083
KCHO 161153Z 00000KT 10SM CLR M04/M09 A3041 RMK AO2 SLP304 T10441089 11028 21056 50001
KCHO 161053Z 00000KT 10SM CLR M04/M09 A3042 RMK AO2 SLP306 T10441094
KCHO 160953Z AUTO 00000KT 10SM CLR M04/M09 A3040 RMK AO2 SLP301 T10441094
KCHO 160853Z AUTO 15003KT 10SM CLR M04/M11 A3041 RMK AO2 SLP301 T10441106 56007
KCHO 160753Z AUTO 00000KT 10SM CLR M04/M10 A3041 RMK AO2 SLP304 T10391100
KCHO 160653Z AUTO 00000KT 10SM CLR M03/M10 A3042 RMK AO2 SLP305 T10331100
KCHO 160553Z AUTO 00000KT 10SM CLR M04/M09 A3043 RMK AO2 SLP309 T10391094 11006 21039 58009
KCHO 160453Z AUTO 13003KT 10SM CLR M03/M09 A3044 RMK AO2 SLP313 T10331094 400171117
KCHO 160353Z 00000KT 10SM CLR M03/M10 A3045 RMK AO2 SLP318 T10331100
KCHO 160253Z 00000KT 10SM CLR M03/M12 A3045 RMK AO2 SLP319 T10331122 55001
KCHO 160153Z 00000KT 10SM CLR M03/M12 A3044 RMK AO2 SLP316 T10281122
KCHO 160053Z 00000KT 10SM CLR M03/M12 A3045 RMK AO2 SLP319 T10281117
KCHO 152353Z 00000KT 10SM CLR M01/M13 A3046 RMK AO2 SLP320 T10061128 10017 21017 53008
KCHO 152253Z 00000KT 10SM CLR M01/M13 A3044 RMK AO2 SLP313 T10061128
KCHO 152153Z 00000KT 10SM CLR 01/M13 A3044 RMK AO2 SLP315 T00061133
KCHO 152053Z VRB04KT 10SM CLR 01/M13 A3043 RMK AO2 SLP312 T00111128 56009
KCHO 151953Z 00000KT 10SM CLR 01/M12 A3044 RMK AO2 SLP314 T00061117
KCHO 151853Z VRB04KT 10SM CLR M01/M12 A3043 RMK AO2 SLP310 T10061122
KCHO 151753Z 00000KT 10SM CLR M01/M13 A3046 RMK AO2 PRESFR SLP322 T10061128 11006 21117 58043
KCHO 151653Z 09004KT 10SM CLR M02/M14 A3053 RMK AO2 SLP345 T10221144
KCHO 151553Z 00000KT 10SM CLR M04/M14 A3057 RMK AO2 SLP359 T10391139